Weather reports worldwide

Advertisment
Oliva, Spain (8282): temperature & dewpoint: 08.11.2018 13:00:00 - 14.11.2018 13:00:00 (CET)Oliva, Spain (8282): wind speed & gusts: 08.11.2018 13:00:00 - 14.11.2018 13:00:00 (CET)Oliva, Spain (8282): wind direction: 08.11.2018 13:00:00 - 14.11.2018 13:00:00 (CET)Oliva, Spain (8282): precipitation: 08.11.2018 13:00:00 - 14.11.2018 13:00:00 (CET)
Date & Time tt [°C] td [°C] ff [km/h] ff [kn] fx [km/h] fx [kn] dd rr [mm]
14.11.2018 13:00:00 - - - - - - - -
14.11.2018 12:00:00 18,4 16,2 6 3 12 7 N 0,0
14.11.2018 11:00:00 18,0 16,1 6 3 11 6 NNE 0,0
14.11.2018 10:00:00 16,9 15,1 4 2 9 5 WNW 0,0
14.11.2018 09:00:00 16,1 14,2 4 2 7 4 WNW 0,0
14.11.2018 08:00:00 15,4 13,6 4 2 8 4 WNW 0,0
14.11.2018 07:00:00 15,6 13,8 3 2 7 4 W -
14.11.2018 06:00:00 15,8 13,9 3 2 6 3 WNW 0,0
14.11.2018 05:00:00 15,6 13,8 4 2 7 4 W 0,0
14.11.2018 04:00:00 16,0 14,1 5 3 9 5 WNW 0,0
14.11.2018 03:00:00 16,7 14,9 4 2 12 7 NNW 0,0
14.11.2018 02:00:00 17,4 15,5 5 3 12 6 NNE 0,0
14.11.2018 01:00:00 17,2 15,3 5 3 13 7 N -
14.11.2018 00:00:00 16,5 14,7 4 2 9 5 NW 0,0
13.11.2018 23:00:00 16,4 14,6 4 2 11 6 WNW 0,0
13.11.2018 22:00:00 16,8 15,0 4 2 13 7 NW 0,0
13.11.2018 21:00:00 17,5 15,5 5 3 16 9 N 0,0
13.11.2018 20:00:00 17,5 15,5 6 3 15 8 N 0,0
13.11.2018 19:00:00 17,7 15,7 7 4 16 8 N -
13.11.2018 18:00:00 17,7 15,7 7 4 17 9 N 0,0
13.11.2018 17:00:00 18,0 15,8 6 4 19 10 NNE 0,0
13.11.2018 16:00:00 18,3 15,9 8 4 16 9 NNE 0,0
13.11.2018 15:00:00 18,5 16,1 7 4 14 8 NNE 0,0
13.11.2018 14:00:00 18,9 16,5 8 4 19 10 NNE 0,0
13.11.2018 13:00:00 18,8 16,2 8 4 20 11 NW -
13.11.2018 12:00:00 18,3 15,7 8 4 18 10 NW 0,0
13.11.2018 11:00:00 17,9 15,3 7 4 15 8 NW 0,0
13.11.2018 10:00:00 17,0 15,0 5 3 10 5 WNW 0,0
13.11.2018 09:00:00 16,3 14,5 5 3 10 5 WNW 0,0
13.11.2018 08:00:00 15,8 13,9 6 3 10 5 WNW 0,0
13.11.2018 07:00:00 15,7 13,9 5 3 11 6 WNW -
13.11.2018 06:00:00 15,5 13,7 6 3 11 6 WNW 0,0
13.11.2018 05:00:00 15,4 13,6 5 3 9 5 WNW 0,0
13.11.2018 04:00:00 15,3 13,5 4 2 11 6 WNW 0,0
13.11.2018 03:00:00 15,4 13,6 5 3 11 6 WNW 0,0
13.11.2018 02:00:00 15,0 13,2 4 2 10 6 W 0,0
13.11.2018 01:00:00 15,3 13,5 4 2 7 4 NW -
13.11.2018 00:00:00 14,5 12,7 4 2 8 4 W 0,0
12.11.2018 23:00:00 14,8 13,1 4 2 10 5 WNW 0,0
12.11.2018 22:00:00 15,6 13,8 4 2 8 4 W 0,0
12.11.2018 21:00:00 16,3 14,3 3 2 6 4 W 0,0
12.11.2018 20:00:00 16,9 14,9 3 2 8 5 W 0,0
12.11.2018 19:00:00 17,8 15,8 5 3 10 5 N -
12.11.2018 18:00:00 17,8 15,6 5 3 11 6 NW 0,0
12.11.2018 17:00:00 18,2 16,0 7 4 14 8 N 0,0
12.11.2018 16:00:00 18,3 15,9 8 5 16 8 NNE 0,0
12.11.2018 15:00:00 19,0 15,9 7 4 15 8 NNW 0,0
12.11.2018 14:00:00 18,7 15,5 8 4 18 10 NNW 0,0
12.11.2018 13:00:00 18,3 15,2 9 5 18 10 NNW -
12.11.2018 12:00:00 18,8 15,1 8 5 17 9 WNW 0,0
12.11.2018 11:00:00 16,8 14,2 9 5 15 8 WNW 0,0
12.11.2018 10:00:00 16,1 13,9 7 4 16 9 W 0,0
12.11.2018 09:00:00 14,3 12,5 6 4 16 8 WNW 0,0
12.11.2018 08:00:00 12,8 11,0 6 4 14 7 W 0,0
12.11.2018 07:00:00 11,8 10,2 3 2 10 5 WNW -
12.11.2018 06:00:00 12,0 10,3 4 2 12 7 WNW 0,0
12.11.2018 05:00:00 11,2 9,7 7 4 13 7 WNW 0,0
12.11.2018 04:00:00 11,1 9,6 4 2 10 6 WNW 0,0
12.11.2018 03:00:00 11,1 9,6 5 3 9 5 NW 0,0
12.11.2018 02:00:00 10,6 9,0 2 1 5 3 W 0,0
12.11.2018 01:00:00 12,0 10,4 2 1 8 4 SSW -
12.11.2018 00:00:00 11,9 10,2 1 1 9 5 W 0,0
11.11.2018 23:00:00 11,5 9,8 5 3 12 6 WNW 0,0
11.11.2018 22:00:00 12,5 10,5 0 0 8 4 S 0,0
11.11.2018 21:00:00 13,3 11,2 4 2 8 4 S 0,0
11.11.2018 20:00:00 14,6 12,4 5 3 9 5 S 0,0
11.11.2018 19:00:00 16,0 13,9 2 1 8 5 S -
11.11.2018 18:00:00 18,6 16,2 2 1 6 4 E 0,0
11.11.2018 17:00:00 19,4 16,2 3 1 6 4 W 0,0
11.11.2018 16:00:00 20,1 16,7 3 2 10 5 N 0,0
11.11.2018 15:00:00 20,1 16,6 5 3 13 7 ENE 0,0
11.11.2018 14:00:00 20,6 16,6 6 3 15 8 E 0,0
11.11.2018 13:00:00 19,9 16,0 8 5 14 8 ESE -
11.11.2018 12:00:00 19,9 13,2 8 4 12 7 ESE 0,0
11.11.2018 11:00:00 20,4 12,3 3 2 11 6 SSE 0,0
11.11.2018 10:00:00 18,7 13,4 3 2 10 5 SE 0,0
11.11.2018 09:00:00 15,9 12,6 3 1 8 5 WSW 0,0
11.11.2018 08:00:00 14,3 11,7 6 3 10 5 WNW 0,0
11.11.2018 07:00:00 14,4 11,3 1 0 10 5 NW -
11.11.2018 06:00:00 15,4 11,8 4 2 17 9 S 0,0
11.11.2018 05:00:00 14,6 11,6 13 7 21 12 W 0,0
11.11.2018 04:00:00 13,9 11,1 8 4 18 10 WNW 0,0
11.11.2018 03:00:00 13,8 11,0 5 3 19 10 W 0,0
11.11.2018 02:00:00 13,2 10,9 8 5 16 9 W 0,0
11.11.2018 01:00:00 12,6 10,2 0 0 7 4 S -
11.11.2018 00:00:00 12,7 10,3 1 0 9 5 SSW 0,0
10.11.2018 23:00:00 13,9 11,1 1 1 9 5 WNW 0,0
10.11.2018 22:00:00 13,4 10,8 4 2 9 5 W 0,0
10.11.2018 21:00:00 14,5 11,7 2 1 8 5 ESE 0,0
10.11.2018 20:00:00 13,2 10,8 1 1 8 4 WSW 0,0
10.11.2018 19:00:00 14,3 11,2 2 1 6 4 W -
10.11.2018 18:00:00 16,3 11,2 0 0 11 6 N 0,0
10.11.2018 17:00:00 18,2 10,3 1 1 24 13 SSW 0,0
10.11.2018 16:00:00 17,6 10,2 11 6 28 15 W 0,0
10.11.2018 15:00:00 18,1 9,7 7 4 25 14 NW 0,0
10.11.2018 14:00:00 18,8 9,0 8 5 42 23 WNW 0,0
10.11.2018 13:00:00 18,7 10,0 4 2 28 15 W -
10.11.2018 12:00:00 17,5 9,2 9 5 26 14 WNW 0,0
10.11.2018 11:00:00 17,3 8,9 11 6 31 17 W 0,0
10.11.2018 10:00:00 17,6 8,9 14 7 32 17 W 0,0
10.11.2018 09:00:00 16,2 9,8 12 6 23 12 W 0,0
10.11.2018 08:00:00 13,7 8,8 1 0 18 10 W 0,0
10.11.2018 07:00:00 14,1 8,3 8 4 27 14 W -
10.11.2018 06:00:00 14,4 7,8 8 4 18 10 WNW 0,0
10.11.2018 05:00:00 14,9 7,0 9 5 24 13 W 0,0
10.11.2018 04:00:00 14,9 6,2 11 6 33 18 W 0,0
10.11.2018 03:00:00 14,5 5,8 15 8 26 14 WNW 0,0
10.11.2018 02:00:00 14,8 5,6 10 6 40 22 W 0,0
10.11.2018 01:00:00 14,5 5,0 14 8 31 17 WNW -
10.11.2018 00:00:00 14,3 4,3 16 9 38 20 WNW 0,0
09.11.2018 23:00:00 14,0 3,9 17 9 31 17 WNW 0,0
09.11.2018 22:00:00 13,8 3,0 13 7 27 14 W 0,0
09.11.2018 21:00:00 13,6 3,6 12 7 32 17 W 0,0
09.11.2018 20:00:00 13,8 4,1 11 6 30 16 W 0,0
09.11.2018 19:00:00 14,2 4,8 11 6 29 15 W -
09.11.2018 18:00:00 14,4 5,1 8 4 25 13 W 0,0
09.11.2018 17:00:00 16,4 4,1 13 7 31 17 WNW 0,0
09.11.2018 16:00:00 17,1 3,4 18 10 36 20 WNW 0,0
09.11.2018 15:00:00 17,8 4,6 14 8 37 20 WNW 0,0
09.11.2018 14:00:00 16,9 3,9 18 10 40 21 WNW 0,0
09.11.2018 13:00:00 16,6 4,6 20 11 40 22 WNW -
09.11.2018 12:00:00 16,0 4,3 18 10 43 23 WNW 0,0
09.11.2018 11:00:00 15,0 5,0 23 12 50 27 WNW 0,0
09.11.2018 10:00:00 13,8 5,9 20 11 51 27 W -
09.11.2018 09:00:00 12,8 5,5 24 13 - - W -
09.11.2018 08:00:00 12,2 5,6 22 12 43 23 W 0,0
09.11.2018 07:00:00 12,5 6,1 13 7 34 19 W -
09.11.2018 06:00:00 13,0 6,1 16 9 40 22 W 0,1
09.11.2018 05:00:00 13,8 6,7 16 9 33 18 WNW 0,0
09.11.2018 04:00:00 13,8 8,4 14 8 36 19 W 0,0
09.11.2018 03:00:00 12,9 11,0 10 6 29 15 W 0,0
09.11.2018 02:00:00 13,8 12,0 1 1 14 8 WNW 0,1
09.11.2018 01:00:00 14,2 12,4 3 2 20 11 NNW -
09.11.2018 00:00:00 14,1 12,3 0 0 5 3 W 0,4
08.11.2018 23:00:00 13,9 12,1 0 0 10 5 W 0,0
08.11.2018 22:00:00 13,2 11,4 4 2 8 5 WNW 0,0
08.11.2018 21:00:00 13,6 11,7 0 0 6 3 W 0,0
08.11.2018 20:00:00 14,7 12,5 3 2 7 4 S 0,0
08.11.2018 19:00:00 15,9 13,4 0 0 10 6 WSW -
08.11.2018 18:00:00 16,6 13,9 6 3 14 8 W 0,0
08.11.2018 17:00:00 17,3 14,4 6 3 12 7 NNW 0,0
08.11.2018 16:00:00 17,4 14,3 5 3 11 6 N 0,0
08.11.2018 15:00:00 17,6 13,9 7 4 12 7 N 0,0
08.11.2018 14:00:00 18,1 13,2 6 3 14 8 NNE 0,0
08.11.2018 13:00:00 17,8 12,6 6 4 11 6 NNE -

tt = temperature
td = dewpoint
ff = wind speed
fx = gusts
dd = wind direction
rr = precipitation

Next stations